Altamont, NY

9:37 AM EDT on October 21, 2014 (GMT -0400)
Voorheesville High School | Change Station
CLOSE
Current Station
Personal Weather Station
Location: Voorheesville, NY
Elevation: 400 ft
Nearby Weather Stations

Elev 400 ft 42.64 °N, 73.96 °W | Updated 22 seconds ago

Overcast
Overcast
46.5 °F
Feels Like 46 °F
N
0.0
Wind Variable Wind from NW
Gusts 0.0 mph

Today
High -- | Low -- °F
--% Chance of Precip.
Yesterday
High -- | Low -- °F
Precip. -- in
7:16 AM 6:04 PM
Waning Crescent, 5% visible
Pressure 29.92 in
Visibility 5.0 miles
Clouds Scattered Clouds 6500 ft
Overcast 8500 ft
Windchill 46 °F
Dew Point 42 °F
Humidity 86%
Rainfall 0.07 in
Snow Depth Not available.
UV 0 out of 12
Pollen .10 out of 12
PM2.5 Good
Flu Activity Sporadic
METAR KSCH 211252Z 00000KT 5SM FG SCT065 OVC085 08/07 A2992

More Conditions Fewer Conditions

Pressure 29.92 in
Visibility 5.0 miles
Clouds Scattered Clouds 6500 ft
Overcast 8500 ft
Windchill 46 °F
Dew Point 42 °F
Humidity 86%
Rainfall 0.07 in
Snow Depth Not available.
UV 0 out of 12
Pollen .10 out of 12
PM2.5 Good
Flu Activity Sporadic
METAR KSCH 211252Z 00000KT 5SM FG SCT065 OVC085 08/07 A2992

More Conditions Fewer Conditions

10-Day Weather Forecast

Almanac

Astronomy

Oct. 21, 2014 Rise Set
Actual Time 7:16 AM EDT 6:04 PM EDT
Civil Twilight 6:47 AM EDT 6:33 PM EDT
Nautical Twilight 6:14 AM EDT 7:05 PM EDT
Astronomical Twilight 5:42 AM EDT 7:38 PM EDT
Moon 4:55 AM EDT 4:59 PM EDT
Length of Visible Light 11h 45m
Length of Day
10h 47m
Tomorrow will be 2m 44s shorter.
Waning Crescent, 5% of the Moon is Illuminated
Today
Waning Crescent
Oct 23
New
Oct 30
First Quarter
Nov 6
Full
Nov 14
Last Quarter

Today's Extremes

State Highs State Lows

Community

WunderPhotos

Upload Photos

1,763,662 photos uploaded!

Nearby

Air Quality

  Air Quality AQ Index Pollutant
Yesterday Good
OZONE
Yesterday Good
PM2.5
Current Good
PM2.5
Tuesday Good
PM2.5

Snow Depth

Station Depth Elevation
No new snow has been reported.

Earthquake Activity

City Distance Mag. Time & Date
No recent earthquake activity has been reported nearby.
Minimum magnitude displayed is 2.5.

Coastal Water Temperatures

Place Temperature
No Stations Reporting

Nearby Weather Stations